Time;durP1;ratioP1;P1;durP2;ratioP2;P2;SDS_P1;SDS_P2;PMS_P1;PMS_P2;Temp;Humidity;BMP_temperature;BMP_pressure;BME280_temperature;BME280_humidity;BME280_pressure;Samples;Min_cycle;Max_cycle;Signal;HPM_P1;HPM_P2
2021/06/17 00:01:33;;;;;;;;;15.50;15.50;;;;;;;;3569273;39;113821;-72
2021/06/17 00:03:59;;;;;;;;;17.75;15.25;;;;;;;;3569196;39;114270;-72
2021/06/17 00:06:26;;;;;;;;;17.25;15.00;;;;;;;;3572310;39;111834;-72
2021/06/17 00:08:52;;;;;;;;;17.75;14.75;;;;;;;;3568938;39;113814;-72
2021/06/17 00:11:20;;;;;;;;;17.50;16.25;;;;;;;;3569985;39;112108;-72
2021/06/17 00:13:47;;;;;;;;;17.00;17.00;;;;;;;;3565083;39;112634;-72
2021/06/17 00:16:14;;;;;;;;;16.75;16.75;;;;;;;;3569879;39;114041;-72
2021/06/17 00:18:41;;;;;;;;;14.00;14.00;;;;;;;;3568438;39;111849;-71
2021/06/17 00:21:07;;;;;;;;;14.25;13.50;;;;;;;;3570096;39;113412;-71
2021/06/17 00:23:35;;;;;;;;;16.00;16.00;;;;;;;;3568374;39;113905;-71
2021/06/17 00:26:02;;;;;;;;;14.75;14.75;;;;;;;;3569693;39;111891;-73
2021/06/17 00:28:31;;;;;;;;;18.00;16.00;;;;;;;;3572248;39;113667;-72
2021/06/17 00:30:58;;;;;;;;;15.00;15.00;;;;;;;;3570295;39;112076;-72
2021/06/17 00:33:24;;;;;;;;;16.50;15.50;;;;;;;;3569650;39;113885;-72
2021/06/17 00:35:51;;;;;;;;;18.00;17.50;;;;;;;;3568403;39;113844;-73
2021/06/17 00:38:18;;;;;;;;;19.25;17.00;;;;;;;;3570123;39;112515;-72
2021/06/17 00:40:44;;;;;;;;;16.75;16.50;;;;;;;;3568362;39;113579;-72
2021/06/17 00:43:11;;;;;;;;;21.25;17.75;;;;;;;;3568117;39;114418;-72
2021/06/17 00:45:41;;;;;;;;;20.75;19.75;;;;;;;;3569737;39;111999;-72
2021/06/17 00:48:08;;;;;;;;;16.50;15.75;;;;;;;;3568845;39;113391;-72
2021/06/17 00:50:37;;;;;;;;;18.50;18.00;;;;;;;;3572698;39;114515;-72
2021/06/17 00:53:04;;;;;;;;;21.75;18.75;;;;;;;;3569663;39;113185;-73
2021/06/17 00:55:30;;;;;;;;;22.25;21.25;;;;;;;;3570612;39;113829;-73
2021/06/17 00:57:57;;;;;;;;;18.75;18.75;;;;;;;;3569167;39;112050;-72
2021/06/17 01:00:23;;;;;;;;;20.25;19.25;;;;;;;;3569628;39;114145;-75
2021/06/17 01:02:51;;;;;;;;;19.75;19.00;;;;;;;;3568274;39;113926;-74
2021/06/17 01:05:21;;;;;;;;;18.00;17.50;;;;;;;;3570260;39;111777;-80
2021/06/17 01:07:56;;;;;;;;;19.00;19.00;;;;;;;;3568796;39;113537;-77
2021/06/17 01:10:26;;;;;;;;;19.75;18.50;;;;;;;;3569151;39;114716;-75
2021/06/17 01:12:57;;;;;;;;;19.25;16.75;;;;;;;;3571794;39;111851;-76
2021/06/17 01:15:24;;;;;;;;;17.00;16.50;;;;;;;;3568784;39;113690;-75
2021/06/17 01:17:56;;;;;;;;;18.25;17.25;;;;;;;;3568007;39;112311;-75
2021/06/17 01:20:29;;;;;;;;;17.25;17.25;;;;;;;;3568333;39;113447;-75
2021/06/17 01:23:02;;;;;;;;;18.25;18.00;;;;;;;;3567083;39;113858;-75
2021/06/17 01:25:35;;;;;;;;;16.00;15.00;;;;;;;;3568428;39;112129;-74
2021/06/17 01:28:10;;;;;;;;;18.25;18.25;;;;;;;;3567788;39;113338;-74
2021/06/17 01:30:42;;;;;;;;;18.00;15.25;;;;;;;;3571070;39;114410;-74
2021/06/17 01:33:08;;;;;;;;;20.25;18.00;;;;;;;;3570768;39;111909;-75
2021/06/17 01:35:37;;;;;;;;;17.75;17.00;;;;;;;;3567873;39;114011;-76
2021/06/17 01:38:04;;;;;;;;;19.50;18.50;;;;;;;;3567781;39;111864;-75
2021/06/17 01:40:31;;;;;;;;;19.25;18.25;;;;;;;;3568310;39;113290;-75
2021/06/17 01:42:59;;;;;;;;;17.25;17.25;;;;;;;;3567078;39;113985;-75
2021/06/17 01:45:28;;;;;;;;;20.00;15.25;;;;;;;;3570357;39;111974;-74
2021/06/17 01:47:54;;;;;;;;;19.00;17.75;;;;;;;;3569631;39;113294;-75
2021/06/17 01:50:23;;;;;;;;;17.25;15.00;;;;;;;;3568176;39;113896;-74
2021/06/17 01:52:54;;;;;;;;;16.75;16.75;;;;;;;;3569845;39;112087;-75
2021/06/17 01:55:21;;;;;;;;;16.25;15.00;;;;;;;;3572725;39;113490;-75
2021/06/17 01:57:49;;;;;;;;;20.50;19.50;;;;;;;;3568342;39;112325;-74
2021/06/17 02:00:16;;;;;;;;;17.25;16.00;;;;;;;;3570083;39;113536;-75
2021/06/17 02:02:45;;;;;;;;;19.75;19.00;;;;;;;;3567645;39;113971;-75
2021/06/17 02:05:12;;;;;;;;;19.75;18.00;;;;;;;;3568119;39;111835;-74
2021/06/17 02:07:43;;;;;;;;;17.50;17.00;;;;;;;;3569636;39;113402;-75
2021/06/17 02:10:09;;;;;;;;;13.50;13.00;;;;;;;;3567231;39;113847;-74
2021/06/17 02:12:39;;;;;;;;;16.25;15.75;;;;;;;;3569331;39;112062;-75
2021/06/17 02:15:07;;;;;;;;;19.75;18.75;;;;;;;;3568474;39;113598;-75
2021/06/17 02:17:34;;;;;;;;;18.75;18.75;;;;;;;;3571451;39;113884;-74
2021/06/17 02:20:02;;;;;;;;;18.25;18.25;;;;;;;;3568726;39;113293;-74
2021/06/17 02:22:29;;;;;;;;;18.50;18.25;;;;;;;;3568559;39;114258;-75
2021/06/17 02:24:56;;;;;;;;;17.75;17.00;;;;;;;;3569105;39;112576;-76
2021/06/17 02:27:27;;;;;;;;;19.50;16.00;;;;;;;;3568492;39;113766;-74
2021/06/17 02:29:54;;;;;;;;;17.75;17.25;;;;;;;;3568750;39;114187;-75
2021/06/17 02:32:22;;;;;;;;;19.25;17.00;;;;;;;;3570410;39;112794;-75
2021/06/17 02:34:49;;;;;;;;;17.50;16.75;;;;;;;;3568435;39;113367;-76
2021/06/17 02:37:18;;;;;;;;;18.50;17.50;;;;;;;;3569256;39;114316;-74
2021/06/17 02:39:45;;;;;;;;;18.50;18.50;;;;;;;;3570720;39;111990;-74
2021/06/17 02:42:15;;;;;;;;;15.00;15.00;;;;;;;;3565716;39;113045;-75
2021/06/17 02:44:42;;;;;;;;;15.75;15.50;;;;;;;;3568391;39;111907;-75
2021/06/17 02:47:09;;;;;;;;;19.00;17.50;;;;;;;;3569883;39;113300;-75
2021/06/17 02:49:36;;;;;;;;;20.00;17.75;;;;;;;;3568738;39;113703;-75
2021/06/17 02:52:03;;;;;;;;;17.25;17.25;;;;;;;;3568369;39;113129;-74
2021/06/17 02:54:31;;;;;;;;;17.25;17.25;;;;;;;;3568851;39;113781;-75
2021/06/17 02:57:00;;;;;;;;;17.50;16.50;;;;;;;;3569286;39;114545;-75
2021/06/17 02:59:36;;;;;;;;;18.50;18.50;;;;;;;;3568825;39;111893;-75
2021/06/17 03:02:06;;;;;;;;;18.25;18.00;;;;;;;;3571124;39;113275;-75
2021/06/17 03:04:35;;;;;;;;;17.25;17.25;;;;;;;;3568443;39;111914;-76
2021/06/17 03:07:02;;;;;;;;;17.50;16.75;;;;;;;;3567821;39;113214;-76
2021/06/17 03:09:35;;;;;;;;;17.25;15.50;;;;;;;;3568028;39;113805;-75
2021/06/17 03:12:02;;;;;;;;;14.00;14.00;;;;;;;;3568709;39;111830;-76
2021/06/17 03:14:30;;;;;;;;;19.25;16.50;;;;;;;;3568272;39;113540;-75
2021/06/17 03:16:57;;;;;;;;;20.75;19.50;;;;;;;;3568544;39;113828;-75
2021/06/17 03:19:26;;;;;;;;;23.25;21.50;;;;;;;;3567783;39;111868;-75
2021/06/17 03:21:56;;;;;;;;;20.25;20.00;;;;;;;;3570448;39;113261;-74
2021/06/17 03:24:24;;;;;;;;;23.00;21.25;;;;;;;;3574967;39;114191;-75
2021/06/17 03:26:53;;;;;;;;;18.75;18.75;;;;;;;;3570937;39;113801;-74
2021/06/17 03:29:21;;;;;;;;;20.25;20.25;;;;;;;;3568307;39;114650;-75
2021/06/17 03:31:47;;;;;;;;;22.00;19.00;;;;;;;;3569024;39;111951;-75
2021/06/17 03:34:14;;;;;;;;;20.75;20.75;;;;;;;;3571083;39;113969;-75
2021/06/17 03:36:41;;;;;;;;;22.50;19.00;;;;;;;;3570587;39;114097;-74
2021/06/17 03:39:08;;;;;;;;;23.00;22.00;;;;;;;;3572102;39;112329;-75
2021/06/17 03:41:35;;;;;;;;;22.25;21.25;;;;;;;;3572824;39;113051;-76
2021/06/17 03:44:03;;;;;;;;;25.75;21.50;;;;;;;;3572440;39;113962;-75
2021/06/17 03:46:30;;;;;;;;;26.75;21.50;;;;;;;;3571915;39;113359;-77
2021/06/17 03:48:57;;;;;;;;;20.50;18.00;;;;;;;;3572165;39;113897;-76
2021/06/17 03:51:24;;;;;;;;;21.50;21.00;;;;;;;;3573298;39;111909;-76
2021/06/17 03:53:51;;;;;;;;;22.25;22.25;;;;;;;;3571301;39;113244;-77
2021/06/17 03:56:18;;;;;;;;;21.75;19.00;;;;;;;;3572886;39;114311;-76
2021/06/17 03:58:45;;;;;;;;;16.75;16.75;;;;;;;;3571338;39;111919;-77
2021/06/17 04:01:13;;;;;;;;;22.25;22.25;;;;;;;;3572548;39;113546;-76
2021/06/17 04:03:40;;;;;;;;;23.25;21.50;;;;;;;;3568333;39;113963;-76
2021/06/17 04:06:09;;;;;;;;;24.50;24.00;;;;;;;;3573677;39;112547;-75
2021/06/17 04:08:40;;;;;;;;;23.75;21.50;;;;;;;;3569046;39;114235;-75
2021/06/17 04:11:07;;;;;;;;;21.50;21.50;;;;;;;;3571988;39;112146;-75
2021/06/17 04:13:35;;;;;;;;;22.50;21.25;;;;;;;;3570801;39;113685;-75
2021/06/17 04:16:02;;;;;;;;;22.50;22.50;;;;;;;;3570103;39;114267;-75
2021/06/17 04:18:32;;;;;;;;;22.00;22.00;;;;;;;;3572275;39;112265;-74
2021/06/17 04:20:59;;;;;;;;;25.25;23.50;;;;;;;;3571265;39;113383;-75
2021/06/17 04:23:28;;;;;;;;;25.50;25.00;;;;;;;;3572091;39;114231;-75
2021/06/17 04:25:56;;;;;;;;;21.50;21.00;;;;;;;;3571036;39;111770;-76
2021/06/17 04:28:23;;;;;;;;;23.25;21.75;;;;;;;;3574961;39;113299;-76
2021/06/17 04:30:50;;;;;;;;;24.75;23.75;;;;;;;;3570802;39;111981;-75
2021/06/17 04:33:21;;;;;;;;;23.00;23.00;;;;;;;;3568757;39;113395;-76
2021/06/17 04:35:50;;;;;;;;;20.00;18.75;;;;;;;;3568419;39;113763;-74
2021/06/17 04:38:18;;;;;;;;;25.50;24.00;;;;;;;;3570799;39;112049;-75
2021/06/17 04:40:46;;;;;;;;;26.50;23.00;;;;;;;;3570256;39;113405;-75
2021/06/17 04:43:13;;;;;;;;;23.75;22.00;;;;;;;;3568580;39;114744;-74
2021/06/17 04:45:42;;;;;;;;;22.50;21.75;;;;;;;;3569556;39;111747;-74
2021/06/17 04:48:11;;;;;;;;;19.75;17.75;;;;;;;;3569400;39;113239;-75
2021/06/17 04:50:38;;;;;;;;;25.25;23.25;;;;;;;;3573059;39;114586;-76
2021/06/17 04:53:16;;;;;;;;;25.50;25.50;;;;;;;;3569520;39;113329;-75
2021/06/17 04:55:50;;;;;;;;;23.75;23.00;;;;;;;;3568362;39;113941;-75
2021/06/17 04:58:17;;;;;;;;;20.50;20.50;;;;;;;;3570511;39;112480;-75
2021/06/17 05:00:44;;;;;;;;;26.25;23.50;;;;;;;;3568775;39;113407;-75
2021/06/17 05:03:10;;;;;;;;;26.75;25.00;;;;;;;;3569198;39;114077;-76
2021/06/17 05:05:37;;;;;;;;;29.00;24.50;;;;;;;;3569144;39;113577;-74
2021/06/17 05:10:51;;;;;;;;;26.00;25.25;;;;;;;;3567821;39;112312;-73
2021/06/17 05:13:18;;;;;;;;;25.75;25.75;;;;;;;;3572788;39;112568;-75
2021/06/17 05:15:45;;;;;;;;;25.25;25.25;;;;;;;;3567990;39;114011;-75
2021/06/17 05:18:12;;;;;;;;;27.50;27.00;;;;;;;;3569764;39;111884;-74
2021/06/17 05:20:38;;;;;;;;;25.00;23.25;;;;;;;;3568970;39;113568;-73
2021/06/17 05:23:05;;;;;;;;;25.50;25.50;;;;;;;;3569023;39;113860;-75
2021/06/17 05:25:32;;;;;;;;;25.25;25.25;;;;;;;;3569969;39;112210;-77
2021/06/17 05:28:00;;;;;;;;;27.25;26.75;;;;;;;;3569794;39;113753;-78
2021/06/17 05:30:26;;;;;;;;;27.75;26.75;;;;;;;;3570019;39;115152;-78
2021/06/17 05:32:53;;;;;;;;;28.00;24.50;;;;;;;;3568734;39;112451;-78
2021/06/17 05:35:20;;;;;;;;;35.25;28.25;;;;;;;;3573443;39;113347;-77
2021/06/17 05:37:46;;;;;;;;;24.75;24.50;;;;;;;;3569329;39;112101;-77
2021/06/17 05:40:13;;;;;;;;;29.50;27.00;;;;;;;;3569813;39;113732;-78
2021/06/17 05:42:40;;;;;;;;;26.75;26.75;;;;;;;;3569811;39;113940;-78
2021/06/17 05:45:08;;;;;;;;;25.00;23.00;;;;;;;;3568079;39;111904;-78
2021/06/17 05:47:37;;;;;;;;;26.50;24.50;;;;;;;;3569071;39;114236;-77
2021/06/17 05:50:04;;;;;;;;;24.25;23.50;;;;;;;;3573670;39;113851;-79
2021/06/17 05:52:30;;;;;;;;;24.75;24.75;;;;;;;;3574549;39;111869;-78
2021/06/17 05:54:57;;;;;;;;;28.00;27.00;;;;;;;;3575034;39;113347;-78
2021/06/17 05:57:24;;;;;;;;;27.25;25.00;;;;;;;;3573636;39;112028;-78
2021/06/17 14:17:56;;;;;;;;;16.00;15.00;;;;;;;;3588473;39;111961;-84
2021/06/17 14:20:23;;;;;;;;;17.67;15.00;;;;;;;;3575373;39;113806;-82
2021/06/17 14:22:50;;;;;;;;;17.67;17.00;;;;;;;;3576703;39;111887;-81
2021/06/17 14:25:16;;;;;;;;;14.00;14.00;;;;;;;;3577103;39;113592;-77
2021/06/17 14:27:45;;;;;;;;;13.00;12.00;;;;;;;;3575883;39;113997;-78
2021/06/17 14:30:12;;;;;;;;;16.67;16.33;;;;;;;;3577279;39;112834;-80
2021/06/17 14:32:39;;;;;;;;;17.00;17.00;;;;;;;;3575990;39;113435;-78
2021/06/17 14:35:08;;;;;;;;;16.67;16.67;;;;;;;;3577271;39;114030;-83
2021/06/17 14:37:34;;;;;;;;;18.67;17.67;;;;;;;;3580784;39;111752;-85
2021/06/17 14:40:01;;;;;;;;;17.67;17.00;;;;;;;;3575439;39;114505;-85
2021/06/17 14:42:28;;;;;;;;;17.33;15.67;;;;;;;;3576106;39;112264;-82
2021/06/17 14:44:54;;;;;;;;;17.67;16.33;;;;;;;;3575537;39;113765;-81
2021/06/17 14:47:21;;;;;;;;;16.33;16.00;;;;;;;;3575242;39;114246;-85
2021/06/17 14:49:47;;;;;;;;;17.67;17.67;;;;;;;;3574495;39;111905;-81
2021/06/17 14:52:15;;;;;;;;;16.67;16.67;;;;;;;;3575930;39;113478;-81
2021/06/17 14:54:42;;;;;;;;;18.00;18.00;;;;;;;;3575314;39;114484;-83
2021/06/17 14:57:09;;;;;;;;;15.67;14.00;;;;;;;;3576291;39;112233;-83
2021/06/17 14:59:35;;;;;;;;;15.33;15.33;;;;;;;;3579348;39;113888;-84
2021/06/17 15:02:02;;;;;;;;;15.00;14.67;;;;;;;;3574305;39;112394;-85
2021/06/17 15:04:30;;;;;;;;;15.33;15.00;;;;;;;;3575582;39;114132;-82
2021/06/17 15:06:58;;;;;;;;;18.00;18.00;;;;;;;;3575793;39;113490;-86
2021/06/17 15:09:26;;;;;;;;;16.33;16.00;;;;;;;;3574366;39;112312;-83
2021/06/17 15:11:53;;;;;;;;;17.00;17.00;;;;;;;;3576318;39;113675;-85
2021/06/17 15:14:19;;;;;;;;;15.00;15.00;;;;;;;;3575594;39;113979;-81
2021/06/17 15:16:46;;;;;;;;;15.67;15.33;;;;;;;;3575109;39;111937;-79
2021/06/17 15:19:13;;;;;;;;;17.00;16.67;;;;;;;;3575787;39;113264;-83
2021/06/17 15:21:39;;;;;;;;;15.67;14.67;;;;;;;;3577956;39;113884;-82
2021/06/17 15:24:06;;;;;;;;;19.67;17.00;;;;;;;;3575754;39;113446;-82
2021/06/17 15:26:34;;;;;;;;;18.00;16.00;;;;;;;;3576520;39;113919;-79
2021/06/17 15:29:01;;;;;;;;;18.33;16.67;;;;;;;;3569662;39;111849;-80
2021/06/17 15:31:28;;;;;;;;;14.67;14.67;;;;;;;;3570036;39;113411;-81
2021/06/17 15:33:54;;;;;;;;;17.00;17.00;;;;;;;;3569892;39;114449;-81
2021/06/17 15:36:22;;;;;;;;;16.67;16.67;;;;;;;;3569363;39;111800;-83
2021/06/17 15:38:48;;;;;;;;;17.00;16.67;;;;;;;;3569153;39;114141;-82
2021/06/17 15:41:15;;;;;;;;;16.33;15.00;;;;;;;;3569417;39;114755;-82
2021/06/17 15:43:43;;;;;;;;;16.67;15.00;;;;;;;;3573957;39;112099;-77
2021/06/17 15:46:09;;;;;;;;;18.67;18.67;;;;;;;;3568359;39;114581;-78
2021/06/17 15:48:36;;;;;;;;;18.33;18.00;;;;;;;;3570548;39;111814;-77
2021/06/17 15:51:03;;;;;;;;;16.00;14.67;;;;;;;;3568726;39;113496;-79
2021/06/17 15:53:29;;;;;;;;;17.33;17.33;;;;;;;;3569923;39;113821;-83
2021/06/17 15:55:56;;;;;;;;;17.00;16.33;;;;;;;;3568735;39;112367;-82
2021/06/17 15:58:22;;;;;;;;;17.00;16.00;;;;;;;;3569935;39;113400;-85
2021/06/17 16:00:50;;;;;;;;;15.67;15.00;;;;;;;;3569145;39;113658;-75
2021/06/17 16:03:17;;;;;;;;;10.00;10.00;;;;;;;;3569528;39;112162;-84
2021/06/17 16:05:43;;;;;;;;;15.33;14.00;;;;;;;;3571404;39;113231;-85
2021/06/17 16:08:12;;;;;;;;;17.67;16.67;;;;;;;;3568271;39;113012;-80
2021/06/17 16:10:39;;;;;;;;;16.00;16.00;;;;;;;;3570003;39;113458;-80
2021/06/17 16:13:06;;;;;;;;;17.67;16.33;;;;;;;;3567822;39;114218;-83
2021/06/17 16:15:33;;;;;;;;;16.67;16.33;;;;;;;;3566425;39;111811;-83
2021/06/17 16:18:02;;;;;;;;;16.67;15.33;;;;;;;;3570029;39;113284;-84
2021/06/17 16:20:30;;;;;;;;;15.67;15.00;;;;;;;;3568162;39;114019;-78
2021/06/17 16:22:57;;;;;;;;;15.67;15.67;;;;;;;;3568161;39;112021;-77
2021/06/17 16:25:24;;;;;;;;;17.00;14.67;;;;;;;;3569912;39;113710;-80
2021/06/17 16:27:51;;;;;;;;;15.67;14.67;;;;;;;;3571335;39;112133;-79
2021/06/17 16:30:18;;;;;;;;;15.67;15.67;;;;;;;;3567943;39;113226;-79
2021/06/17 16:32:46;;;;;;;;;18.33;16.00;;;;;;;;3566671;39;114203;-82
2021/06/17 16:35:14;;;;;;;;;16.67;16.67;;;;;;;;3569386;39;112113;-87
2021/06/17 16:37:41;;;;;;;;;18.00;17.00;;;;;;;;3567009;39;113175;-84
2021/06/17 16:40:09;;;;;;;;;16.00;15.00;;;;;;;;3567028;39;114240;-83
2021/06/17 16:42:36;;;;;;;;;14.67;13.67;;;;;;;;3567463;39;111845;-82
2021/06/17 16:45:03;;;;;;;;;15.67;14.33;;;;;;;;3567742;39;113597;-76
2021/06/17 16:47:30;;;;;;;;;13.33;13.33;;;;;;;;3571212;39;114497;-78
2021/06/17 16:49:58;;;;;;;;;13.33;13.00;;;;;;;;3569149;39;113710;-76
2021/06/17 16:52:26;;;;;;;;;13.00;13.00;;;;;;;;3570271;39;114366;-79
2021/06/17 16:54:53;;;;;;;;;14.00;12.67;;;;;;;;3566878;39;112390;-75
2021/06/17 16:57:19;;;;;;;;;12.00;12.00;;;;;;;;3567183;39;113389;-75
2021/06/17 16:59:46;;;;;;;;;9.00;9.00;;;;;;;;3569123;39;113870;-84
2021/06/17 17:02:12;;;;;;;;;9.67;9.67;;;;;;;;3570422;39;112910;-84
2021/06/17 17:04:39;;;;;;;;;17.00;15.00;;;;;;;;3569340;39;113640;-85
2021/06/17 17:07:06;;;;;;;;;13.33;12.00;;;;;;;;3566527;39;113980;-82
2021/06/17 17:09:34;;;;;;;;;13.00;13.00;;;;;;;;3572987;39;111781;-83
2021/06/17 17:12:01;;;;;;;;;12.67;11.33;;;;;;;;3569391;39;114072;-86
2021/06/17 17:14:27;;;;;;;;;13.00;13.00;;;;;;;;3569434;39;112539;-86
2021/06/17 17:16:55;;;;;;;;;12.00;11.33;;;;;;;;3569701;39;113016;-77
2021/06/17 17:19:23;;;;;;;;;13.67;13.67;;;;;;;;3568231;39;112901;-84
2021/06/17 17:21:50;;;;;;;;;12.00;11.00;;;;;;;;3570794;39;111825;-83
2021/06/17 17:24:16;;;;;;;;;13.33;13.33;;;;;;;;3569910;39;113660;-77
2021/06/17 17:26:44;;;;;;;;;20.00;18.67;;;;;;;;3568339;39;113815;-71
2021/06/17 17:29:11;;;;;;;;;23.33;22.00;;;;;;;;3569197;39;111811;-76
2021/06/17 17:31:37;;;;;;;;;28.33;26.00;;;;;;;;3570122;39;113155;-71
2021/06/17 17:34:04;;;;;;;;;21.67;20.67;;;;;;;;3569671;39;112088;-72
2021/06/17 17:36:30;;;;;;;;;25.33;23.67;;;;;;;;3568003;39;113178;-70
2021/06/17 17:38:58;;;;;;;;;23.00;21.00;;;;;;;;3568863;39;114004;-71
2021/06/17 17:41:25;;;;;;;;;22.00;20.33;;;;;;;;3568276;39;113099;-72
2021/06/17 17:43:53;;;;;;;;;21.33;20.00;;;;;;;;3569393;39;113339;-74
2021/06/17 17:46:19;;;;;;;;;23.33;23.00;;;;;;;;3568137;39;113832;-75
2021/06/17 17:48:46;;;;;;;;;15.33;15.00;;;;;;;;3568702;39;111977;-75
2021/06/17 17:51:12;;;;;;;;;22.33;21.67;;;;;;;;3569048;39;113384;-75
2021/06/17 17:53:39;;;;;;;;;20.33;18.67;;;;;;;;3570106;39;113662;-73
2021/06/17 17:56:06;;;;;;;;;13.33;13.00;;;;;;;;3568856;39;112542;-78
2021/06/17 17:58:33;;;;;;;;;12.33;12.33;;;;;;;;3569724;39;113993;-73
2021/06/17 18:01:02;;;;;;;;;27.33;25.00;;;;;;;;3567759;39;112129;-74
2021/06/17 18:03:28;;;;;;;;;18.33;17.67;;;;;;;;3569670;39;113156;-73
2021/06/17 18:05:55;;;;;;;;;14.00;13.00;;;;;;;;3566912;39;113113;-72
2021/06/17 18:08:22;;;;;;;;;11.33;11.33;;;;;;;;3569066;39;112004;-72
2021/06/17 18:10:49;;;;;;;;;15.00;15.00;;;;;;;;3568868;39;113112;-71
2021/06/17 18:13:17;;;;;;;;;14.67;13.67;;;;;;;;3568215;39;114059;-72
2021/06/17 18:15:49;;;;;;;;;16.67;13.33;;;;;;;;3571283;39;111872;-71
2021/06/17 18:18:19;;;;;;;;;12.00;12.00;;;;;;;;3568115;39;113894;-73
2021/06/17 18:20:46;;;;;;;;;12.00;12.00;;;;;;;;3568462;39;113633;-72
2021/06/17 18:23:12;;;;;;;;;16.67;15.33;;;;;;;;3568056;39;113311;-73
2021/06/17 18:25:39;;;;;;;;;20.00;18.67;;;;;;;;3566953;39;113925;-73
2021/06/17 18:28:05;;;;;;;;;15.67;15.67;;;;;;;;3567291;39;111800;-72
2021/06/17 18:30:32;;;;;;;;;14.00;14.00;;;;;;;;3566867;39;113287;-74
2021/06/17 18:32:59;;;;;;;;;20.33;20.33;;;;;;;;3565805;39;113832;-72
2021/06/17 18:35:27;;;;;;;;;17.33;16.67;;;;;;;;3570663;39;111867;-71
2021/06/17 18:37:53;;;;;;;;;11.33;11.00;;;;;;;;3567978;39;113795;-73
2021/06/17 18:40:20;;;;;;;;;12.00;10.00;;;;;;;;3567766;39;112732;-74
2021/06/17 18:42:47;;;;;;;;;14.33;14.33;;;;;;;;3569298;39;113426;-73
2021/06/17 18:45:14;;;;;;;;;14.00;14.00;;;;;;;;3563600;39;114004;-72
2021/06/17 18:47:41;;;;;;;;;23.00;22.67;;;;;;;;3566405;39;112929;-70
2021/06/17 18:50:09;;;;;;;;;12.00;11.00;;;;;;;;3565623;39;112360;-72
2021/06/17 18:52:37;;;;;;;;;9.00;9.00;;;;;;;;3567208;39;114489;-70
2021/06/17 18:55:04;;;;;;;;;12.33;12.33;;;;;;;;3567326;39;111793;-71
2021/06/17 18:57:31;;;;;;;;;12.67;11.00;;;;;;;;3570736;39;114648;-73
2021/06/17 18:59:57;;;;;;;;;12.33;11.00;;;;;;;;3567287;39;111887;-72
2021/06/17 19:02:24;;;;;;;;;14.00;13.67;;;;;;;;3568382;39;112856;-73
2021/06/17 19:04:51;;;;;;;;;13.00;13.00;;;;;;;;3568534;39;113844;-74
2021/06/17 19:07:19;;;;;;;;;11.00;11.00;;;;;;;;3569075;39;111974;-72
2021/06/17 19:09:49;;;;;;;;;13.33;11.33;;;;;;;;3570214;39;114689;-72
2021/06/17 19:12:17;;;;;;;;;10.33;10.33;;;;;;;;3568468;39;114267;-72
2021/06/17 19:14:43;;;;;;;;;14.00;13.33;;;;;;;;3568924;39;111792;-73
2021/06/17 19:17:10;;;;;;;;;15.33;15.00;;;;;;;;3570033;39;113310;-71
2021/06/17 19:19:37;;;;;;;;;13.00;13.00;;;;;;;;3570569;39;113933;-72
2021/06/17 19:22:05;;;;;;;;;12.00;12.00;;;;;;;;3570500;39;113541;-70
2021/06/17 19:24:32;;;;;;;;;11.67;11.67;;;;;;;;3570037;39;113724;-73
2021/06/17 19:27:01;;;;;;;;;12.67;12.67;;;;;;;;3568391;39;112548;-72
2021/06/17 19:29:29;;;;;;;;;11.00;11.00;;;;;;;;3570159;39;112249;-73
2021/06/17 19:31:55;;;;;;;;;12.00;11.00;;;;;;;;3568371;39;113736;-72
2021/06/17 19:34:22;;;;;;;;;11.00;11.00;;;;;;;;3569544;39;111869;-73
2021/06/17 19:36:49;;;;;;;;;14.67;14.00;;;;;;;;3568871;39;113330;-72
2021/06/17 19:39:15;;;;;;;;;12.00;12.00;;;;;;;;3568968;39;113834;-74
2021/06/17 19:41:42;;;;;;;;;11.00;11.00;;;;;;;;3572113;39;111938;-74
2021/06/17 19:44:10;;;;;;;;;13.67;12.67;;;;;;;;3568151;39;114081;-75
2021/06/17 19:46:36;;;;;;;;;10.67;10.67;;;;;;;;3569209;39;111764;-75
2021/06/17 19:49:03;;;;;;;;;13.00;13.00;;;;;;;;3570071;39;113820;-76
2021/06/17 19:51:30;;;;;;;;;15.00;13.00;;;;;;;;3568101;39;113911;-77
2021/06/17 19:54:06;;;;;;;;;13.33;13.00;;;;;;;;3569585;39;111971;-76
2021/06/17 19:56:42;;;;;;;;;11.00;11.00;;;;;;;;3568919;39;113312;-77
2021/06/17 19:59:10;;;;;;;;;14.67;12.00;;;;;;;;3568252;39;114370;-76
2021/06/17 20:01:37;;;;;;;;;11.00;10.33;;;;;;;;3568364;39;112277;-75
2021/06/17 20:04:03;;;;;;;;;13.00;11.00;;;;;;;;3569916;39;113943;-74
2021/06/17 20:06:30;;;;;;;;;14.33;12.33;;;;;;;;3566331;39;112240;-74
2021/06/17 20:08:56;;;;;;;;;14.00;13.33;;;;;;;;3567997;39;113390;-74
2021/06/17 20:11:23;;;;;;;;;12.33;12.33;;;;;;;;3568953;39;114242;-72
2021/06/17 20:13:50;;;;;;;;;15.00;14.67;;;;;;;;3568499;39;113168;-74
2021/06/17 20:16:18;;;;;;;;;11.33;11.00;;;;;;;;3568194;39;113405;-75
2021/06/17 20:18:44;;;;;;;;;13.67;13.00;;;;;;;;3568210;39;114636;-76
2021/06/17 20:21:11;;;;;;;;;15.00;13.33;;;;;;;;3569578;39;111976;-75
2021/06/17 20:23:37;;;;;;;;;12.00;12.00;;;;;;;;3570535;39;113663;-76
2021/06/17 20:26:04;;;;;;;;;12.67;12.67;;;;;;;;3572200;39;113863;-75
2021/06/17 20:28:31;;;;;;;;;15.00;14.00;;;;;;;;3570136;39;113488;-75
2021/06/17 20:30:57;;;;;;;;;11.00;10.33;;;;;;;;3569132;39;114198;-73
2021/06/17 20:33:25;;;;;;;;;10.33;10.00;;;;;;;;3572364;39;111766;-72
2021/06/17 20:35:52;;;;;;;;;11.00;11.00;;;;;;;;3568436;39;113204;-72
2021/06/17 20:38:18;;;;;;;;;11.33;11.33;;;;;;;;3568399;39;114042;-72
2021/06/17 20:40:45;;;;;;;;;9.00;9.00;;;;;;;;3568677;39;111958;-75
2021/06/17 20:43:11;;;;;;;;;13.00;12.67;;;;;;;;3570640;39;113300;-74
2021/06/17 20:45:38;;;;;;;;;14.00;12.33;;;;;;;;3573461;39;113781;-71
2021/06/17 20:48:05;;;;;;;;;19.67;17.33;;;;;;;;3568104;39;113545;-73
2021/06/17 20:50:33;;;;;;;;;22.00;21.75;;;;;;;;3569282;39;113871;-73
2021/06/17 20:52:59;;;;;;;;;18.75;18.75;;;;;;;;3568102;39;112751;-72
2021/06/17 20:55:26;;;;;;;;;17.75;16.25;;;;;;;;3569809;39;113460;-74
2021/06/17 20:57:52;;;;;;;;;22.75;22.25;;;;;;;;3567972;39;114096;-72
2021/06/17 21:00:21;;;;;;;;;19.25;18.00;;;;;;;;3568858;39;111984;-74
2021/06/17 21:02:48;;;;;;;;;21.00;17.25;;;;;;;;3568834;39;113605;-74
2021/06/17 21:05:14;;;;;;;;;12.75;12.75;;;;;;;;3569804;39;114128;-73
2021/06/17 21:07:43;;;;;;;;;20.75;19.00;;;;;;;;3569592;39;112242;-72
2021/06/17 21:10:10;;;;;;;;;21.00;20.00;;;;;;;;3567915;39;114122;-71
2021/06/17 21:12:37;;;;;;;;;19.25;17.25;;;;;;;;3569306;39;112191;-72
2021/06/17 21:15:05;;;;;;;;;20.00;19.75;;;;;;;;3568829;39;113193;-72
2021/06/17 21:17:31;;;;;;;;;18.67;17.67;;;;;;;;3568983;39;113952;-72
2021/06/17 21:19:58;;;;;;;;;17.00;16.00;;;;;;;;3569034;39;111994;-73
2021/06/17 21:22:24;;;;;;;;;16.33;16.33;;;;;;;;3568234;39;114242;-70
2021/06/17 21:24:53;;;;;;;;;16.67;16.67;;;;;;;;3568318;39;113804;-72
2021/06/17 21:27:19;;;;;;;;;13.67;13.33;;;;;;;;3569040;39;112821;-72
2021/06/17 21:29:46;;;;;;;;;15.67;14.67;;;;;;;;3571003;39;113552;-73
2021/06/17 21:32:12;;;;;;;;;15.00;15.00;;;;;;;;3568425;39;112001;-74
2021/06/17 21:34:39;;;;;;;;;15.00;14.00;;;;;;;;3569547;39;113215;-71
2021/06/17 21:37:05;;;;;;;;;18.33;18.00;;;;;;;;3565488;39;113013;-73
2021/06/17 21:39:33;;;;;;;;;16.00;16.00;;;;;;;;3567632;39;111875;-74
2021/06/17 21:42:01;;;;;;;;;15.00;15.00;;;;;;;;3569131;39;113265;-71
2021/06/17 21:44:28;;;;;;;;;19.67;17.00;;;;;;;;3568706;39;113590;-72
2021/06/17 21:46:55;;;;;;;;;17.00;15.00;;;;;;;;3567792;39;112314;-73
2021/06/17 21:49:22;;;;;;;;;19.75;17.00;;;;;;;;3568030;39;113569;-72
2021/06/17 21:51:48;;;;;;;;;12.50;12.25;;;;;;;;3570296;39;114127;-73
2021/06/17 21:54:15;;;;;;;;;14.00;13.00;;;;;;;;3568892;39;113284;-73
2021/06/17 21:56:46;;;;;;;;;18.00;16.00;;;;;;;;3569939;39;114045;-71
2021/06/17 21:59:14;;;;;;;;;15.00;13.67;;;;;;;;3592511;22;113946;-76
2021/06/17 22:01:41;;;;;;;;;14.00;14.00;;;;;;;;3559260;39;113272;-77
2021/06/17 22:04:08;;;;;;;;;14.33;12.67;;;;;;;;3557448;39;113830;-77
2021/06/17 22:06:34;;;;;;;;;14.33;12.33;;;;;;;;3559563;39;111888;-77
2021/06/17 22:09:01;;;;;;;;;16.33;15.67;;;;;;;;3557949;39;113301;-77
2021/06/17 22:11:28;;;;;;;;;19.00;18.00;;;;;;;;3559085;39;114069;-77
2021/06/17 22:13:54;;;;;;;;;25.00;21.00;;;;;;;;3561878;39;112286;-76
2021/06/17 22:16:22;;;;;;;;;21.00;19.50;;;;;;;;3559260;39;114194;-76
2021/06/17 22:18:49;;;;;;;;;16.33;15.00;;;;;;;;3559617;39;111763;-76
2021/06/17 22:21:17;;;;;;;;;19.00;17.00;;;;;;;;3559316;39;113242;-77
2021/06/17 22:23:44;;;;;;;;;18.50;15.00;;;;;;;;3558057;39;114195;-76
2021/06/17 22:26:10;;;;;;;;;14.00;14.00;;;;;;;;3558706;39;111866;-74